ADDS METAR Data INFO
IDs: Format: Raw Decoded Include TAF

Data at: 1017 UTC 14 Dec 2017

KSOP 140956Z AUTO 22011KT 10SM CLR 01/M06 A2973 RMK AO2 SLP088 T00111061 FZRANO
KSOP 140856Z AUTO 21011KT 10SM CLR 02/M07 A2973 RMK AO2 SLP085 T00171067 58004 FZRANO
KSOP 140756Z AUTO 21010KT 10SM CLR 02/M07 A2973 RMK AO2 SLP088 T00171067 FZRANO
KSOP 140656Z AUTO 22009KT 10SM CLR 02/M07 A2974 RMK AO2 SLP091 T00221067 FZRANO
KSOP 140556Z AUTO 21011KT 10SM CLR 03/M07 A2974 RMK AO2 SLP090 T00331067 10044 20033 56013
KSOP 140456Z AUTO 22014KT 10SM CLR 04/M07 A2975 RMK AO2 SLP093 T00391072 400831072
KSOP 140356Z AUTO 22012G20KT 10SM CLR 04/M07 A2976 RMK AO2 SLP097 T00441072
KSOP 140256Z AUTO 22011KT 10SM CLR 04/M07 A2978 RMK AO2 SLP101 T00391072 55019
KSOP 140156Z AUTO 20013G19KT 10SM FEW120 04/M07 A2977 RMK AO2 PRESFR SLP101 T00391072
KSOP 140056Z AUTO 21011KT 10SM CLR 04/M08 A2980 RMK AO2 SLP108 T00391083
KSOP 132356Z AUTO 21007KT 10SM CLR 04/M09 A2983 RMK AO2 SLP121 T00391089 10083 20033 55010
KSOP 132256Z AUTO 18007KT 10SM CLR 04/M09 A2983 RMK AO2 SLP121 T00391094
KSOP 132156Z AUTO 21009KT 10SM CLR 06/M10 A2985 RMK AO2 SLP128 T00561100
KSOP 132056Z AUTO 22012KT 10SM CLR 08/M11 A2986 RMK AO2 SLP132 T00781106 56027
KSOP 131956Z AUTO 20008KT 10SM CLR 08/M11 A2988 RMK AO2 SLP138 T00831111
KSOP 131856Z AUTO VRB06KT 10SM CLR 07/M12 A2991 RMK AO2 SLP146 T00721122
KSOP 131756Z AUTO 24010G17KT 10SM CLR 06/M13 A2994 RMK AO2 SLP158 60001 T00611133 10067 21067 58027
KSOP 131656Z AUTO 24005KT 10SM CLR 05/M14 A2997 RMK AO2 SLP166 T00501144
KSOP 131556Z AUTO 29005KT 10SM CLR 03/M16 A3001 RMK AO2 SLP181 T00331156
KSOP 131456Z AUTO VRB04KT 10SM CLR 02/M14 A3002 RMK AO2 SLP186 60001 T00171144 51015 FZRANO
KSOP 131356Z AUTO 27005KT 10SM CLR M01/M09 A3002 RMK AO2 SLP185 P0001 T10061094 FZRANO
KSOP 131256Z AUTO 26003KT 10SM CLR M04/M11 A3000 RMK AO2 SLP176 T10441106 FZRANO
KSOP 131056Z AUTO 21004KT 10SM CLR M06/M11 A2996 RMK AO2 SLP164 T10611106 FZRANO
KSOP 130956Z AUTO 00000KT 10SM CLR M06/M12 A2992 RMK AO2 SLP152 T10561117 FZRANO
KSOP 130856Z AUTO VRB03KT 10SM CLR M03/M12 A2992 RMK AO2 SLP150 T10331117 51019 FZRANO
KSOP 130756Z AUTO 00000KT 10SM CLR M04/M10 A2990 RMK AO2 SLP146 T10391100 FZRANO
KSOP 130656Z AUTO 00000KT 10SM CLR M03/M11 A2988 RMK AO2 SLP137 T10331106 FZRANO
KSOP 130556Z AUTO 00000KT 10SM CLR M01/M11 A2986 RMK AO2 SLP130 T10111106 10078 21011 51016 FZRANO
KSOP 130456Z AUTO VRB04KT 10SM CLR 00/M11 A2986 RMK AO2 SLP129 T00001111 401280000 FZRANO
KSOP 130356Z AUTO 32008G14KT 10SM CLR 01/M11 A2984 RMK AO2 SLP125 T00111106 FZRANO
KSOP 130256Z AUTO 31009G16KT 10SM CLR 02/M10 A2981 RMK AO2 SLP115 T00171100 51030 FZRANO TSNO
KSOP 130156Z AUTO 31007G15KT 10SM CLR 03/M08 A2980 RMK AO2 SLP110 T00281083
KSOP 130056Z AUTO 34009G14KT 290V010 10SM CLR 04/M06 A2976 RMK AO2 PK WND 31026/2358 SLP099 T00441056
KSOP 122356Z AUTO 32010G22KT 290V360 10SM BKN065 08/M06 A2972 RMK AO2 PRESRR SLP083 60001 T00831056 10128 20083 53023
KSOP 122256Z AUTO 27006KT 10SM BKN070 BKN085 09/M02 A2968 RMK AO2 SLP069 T00891022